createdAt,value
2019-01-20T00:01:04.148Z,1009.00
2019-01-20T00:02:04.046Z,1008.98
2019-01-20T00:03:11.547Z,1008.98
2019-01-20T00:04:03.933Z,1009.02
2019-01-20T00:05:03.882Z,1008.99
2019-01-20T00:06:03.883Z,1009.00
2019-01-20T00:07:03.808Z,1009.02
2019-01-20T00:08:03.799Z,1008.99
2019-01-20T00:09:12.805Z,1009.00
2019-01-20T00:10:13.842Z,1009.00
2019-01-20T00:11:16.769Z,1009.04
2019-01-20T00:12:12.924Z,1009.04
2019-01-20T00:13:03.547Z,1009.01
2019-01-20T00:14:03.459Z,1009.02
2019-01-20T00:15:03.427Z,1009.03
2019-01-20T00:16:03.374Z,1009.01
2019-01-20T00:17:03.392Z,1009.03
2019-01-20T00:18:03.347Z,1009.06
2019-01-20T00:19:03.259Z,1009.01
2019-01-20T00:20:03.193Z,1009.04
2019-01-20T00:21:03.145Z,1009.01
2019-01-20T00:22:03.066Z,1009.04
2019-01-20T00:23:03.040Z,1009.01
2019-01-20T00:24:02.979Z,1009.03
2019-01-20T00:25:02.954Z,1009.00
2019-01-20T00:26:02.895Z,1009.03
2019-01-20T00:27:02.906Z,1009.01
2019-01-20T00:28:02.807Z,1009.02
2019-01-20T00:29:02.745Z,1008.98
2019-01-20T00:30:02.692Z,1009.01
2019-01-20T00:31:02.680Z,1009.00
2019-01-20T00:32:02.582Z,1008.95
2019-01-20T00:33:02.567Z,1008.94
2019-01-20T00:34:02.501Z,1008.96
2019-01-20T00:35:02.459Z,1008.95
2019-01-20T00:36:11.444Z,1008.95
2019-01-20T00:37:02.344Z,1008.87
2019-01-20T00:38:02.328Z,1008.90
2019-01-20T00:39:02.232Z,1008.91
2019-01-20T00:40:11.457Z,1008.91
2019-01-20T00:41:02.165Z,1008.88
2019-01-20T00:42:02.134Z,1008.87
2019-01-20T00:43:02.026Z,1008.90
2019-01-20T00:44:02.027Z,1008.88
2019-01-20T00:45:02.683Z,1008.88
2019-01-20T00:46:01.920Z,1008.87
2019-01-20T00:47:01.882Z,1008.88
2019-01-20T00:48:01.789Z,1008.87
2019-01-20T00:49:01.743Z,1008.87
2019-01-20T00:50:01.708Z,1008.88
2019-01-20T00:51:01.689Z,1008.87
2019-01-20T00:52:02.342Z,1008.89
2019-01-20T00:53:01.580Z,1008.88
2019-01-20T00:54:01.533Z,1008.88
2019-01-20T00:55:01.495Z,1008.84
2019-01-20T00:56:01.401Z,1008.86
2019-01-20T00:57:01.380Z,1008.85
2019-01-20T00:58:01.337Z,1008.84
2019-01-20T00:59:01.250Z,1008.83
2019-01-20T01:00:01.263Z,1008.83
2019-01-20T01:01:01.180Z,1008.81
2019-01-20T01:02:01.112Z,1008.82
2019-01-20T01:03:01.058Z,1008.85
2019-01-20T01:04:01.006Z,1008.79
2019-01-20T01:05:01.024Z,1008.81
2019-01-20T01:06:00.912Z,1008.82
2019-01-20T01:07:00.879Z,1008.82
2019-01-20T01:08:00.875Z,1008.79
2019-01-20T01:09:00.806Z,1008.85
2019-01-20T01:10:00.747Z,1008.84
2019-01-20T01:11:00.683Z,1008.80
2019-01-20T01:12:00.641Z,1008.85
2019-01-20T01:13:00.589Z,1008.84
2019-01-20T01:14:00.619Z,1008.86
2019-01-20T01:15:00.528Z,1008.88
2019-01-20T01:16:00.462Z,1008.87
2019-01-20T01:17:00.422Z,1008.92
2019-01-20T01:18:00.379Z,1008.85
2019-01-20T01:19:00.363Z,1008.93
2019-01-20T01:20:00.301Z,1008.92
2019-01-20T01:21:00.289Z,1008.90
2019-01-20T01:22:00.149Z,1008.93
2019-01-20T01:23:00.797Z,1008.90
2019-01-20T01:24:00.125Z,1008.92
2019-01-20T01:25:00.017Z,1008.96
2019-01-20T01:25:59.955Z,1008.92
2019-01-20T01:26:59.926Z,1008.97
2019-01-20T01:27:59.846Z,1008.96
2019-01-20T01:28:59.793Z,1008.97
2019-01-20T01:29:59.796Z,1008.92
2019-01-20T01:30:59.701Z,1008.97
2019-01-20T01:31:59.640Z,1008.94
2019-01-20T01:32:59.622Z,1008.98
2019-01-20T01:34:00.301Z,1008.99
2019-01-20T01:34:59.522Z,1008.98
2019-01-20T01:35:59.511Z,1008.98
2019-01-20T01:36:59.416Z,1009.06
2019-01-20T01:37:59.336Z,1009.03
2019-01-20T01:38:59.340Z,1008.99
2019-01-20T01:39:59.281Z,1009.04
2019-01-20T01:40:59.198Z,1009.04
2019-01-20T01:41:59.173Z,1009.05
2019-01-20T01:42:59.109Z,1009.03
2019-01-20T01:44:00.138Z,1009.01
2019-01-20T01:44:59.052Z,1008.99
2019-01-20T01:45:59.030Z,1008.99
2019-01-20T01:46:58.963Z,1008.95
2019-01-20T01:47:58.895Z,1008.97
2019-01-20T01:48:58.805Z,1008.96
2019-01-20T01:49:58.763Z,1008.96
2019-01-20T01:50:58.729Z,1008.96
2019-01-20T01:51:58.667Z,1008.97
2019-01-20T01:52:58.654Z,1009.00
2019-01-20T01:53:58.569Z,1009.04
2019-01-20T01:54:58.573Z,1009.02
2019-01-20T01:55:58.475Z,1009.05
2019-01-20T01:56:58.471Z,1009.06
2019-01-20T01:57:58.401Z,1009.05
2019-01-20T01:58:58.342Z,1009.04
2019-01-20T01:59:58.297Z,1009.01
2019-01-20T02:00:58.285Z,1009.04
2019-01-20T02:01:58.202Z,1009.05
2019-01-20T02:02:58.167Z,1009.04
2019-01-20T02:03:58.098Z,1009.07
2019-01-20T02:04:58.063Z,1009.08
2019-01-20T02:05:58.046Z,1009.06
2019-01-20T02:06:57.941Z,1009.06
2019-01-20T02:07:57.880Z,1009.05
2019-01-20T02:08:57.831Z,1009.03
2019-01-20T02:09:57.799Z,1009.04
2019-01-20T02:10:57.762Z,1008.97
2019-01-20T02:11:57.697Z,1008.96
2019-01-20T02:12:57.660Z,1008.97
2019-01-20T02:13:57.595Z,1009.00
2019-01-20T02:14:57.574Z,1008.99
2019-01-20T02:15:57.502Z,1008.97
2019-01-20T02:16:57.484Z,1008.97
2019-01-20T02:17:57.394Z,1008.98
2019-01-20T02:18:57.318Z,1008.97
2019-01-20T02:19:57.294Z,1008.94
2019-01-20T02:20:57.272Z,1008.95
2019-01-20T02:21:57.221Z,1008.95
2019-01-20T02:22:57.200Z,1008.97
2019-01-20T02:23:57.087Z,1008.94
2019-01-20T02:24:57.057Z,1008.93
2019-01-20T02:25:57.007Z,1008.96
2019-01-20T02:26:56.995Z,1008.99
2019-01-20T02:27:56.893Z,1009.00
2019-01-20T02:28:56.860Z,1009.01
2019-01-20T02:29:56.778Z,1008.97
2019-01-20T02:30:56.756Z,1008.94
2019-01-20T02:31:56.712Z,1009.00
2019-01-20T02:32:56.705Z,1008.98
2019-01-20T02:33:56.623Z,1008.98
2019-01-20T02:34:56.586Z,1008.98
2019-01-20T02:35:56.511Z,1009.00
2019-01-20T02:36:56.470Z,1008.99
2019-01-20T02:37:56.441Z,1008.97
2019-01-20T02:38:56.366Z,1009.01
2019-01-20T02:39:56.327Z,1009.01
2019-01-20T02:40:56.257Z,1008.97
2019-01-20T02:41:56.481Z,1009.00
2019-01-20T02:42:56.191Z,1009.02
2019-01-20T02:43:56.202Z,1009.00
2019-01-20T02:44:56.059Z,1008.99
2019-01-20T02:45:56.035Z,1009.02
2019-01-20T02:46:55.954Z,1008.97
2019-01-20T02:47:55.943Z,1008.99
2019-01-20T02:48:55.929Z,1009.02
2019-01-20T02:49:55.803Z,1008.99
2019-01-20T02:50:55.798Z,1009.02
2019-01-20T02:51:55.817Z,1009.03
2019-01-20T02:52:55.657Z,1009.02
2019-01-20T02:53:55.642Z,1009.00
2019-01-20T02:54:55.584Z,1008.99
2019-01-20T02:55:55.538Z,1009.03
2019-01-20T02:56:55.481Z,1009.01
2019-01-20T02:57:55.444Z,1008.96
2019-01-20T02:58:55.386Z,1009.00
2019-01-20T02:59:55.318Z,1009.01
2019-01-20T03:00:55.299Z,1008.95
2019-01-20T03:01:55.243Z,1008.95
2019-01-20T03:02:55.203Z,1008.92
2019-01-20T03:03:55.173Z,1008.93
2019-01-20T03:04:55.121Z,1008.95
2019-01-20T03:05:55.037Z,1008.93
2019-01-20T03:06:54.979Z,1008.95
2019-01-20T03:07:54.937Z,1008.98
2019-01-20T03:08:54.910Z,1008.96
2019-01-20T03:09:54.838Z,1008.92
2019-01-20T03:10:54.795Z,1008.95
2019-01-20T03:11:54.761Z,1008.98
2019-01-20T03:12:54.694Z,1008.96
2019-01-20T03:13:54.694Z,1008.98
2019-01-20T03:14:54.610Z,1008.96
2019-01-20T03:15:54.537Z,1008.94
2019-01-20T03:16:54.492Z,1008.92
2019-01-20T03:17:54.433Z,1008.94
2019-01-20T03:18:54.376Z,1008.97
2019-01-20T03:19:54.362Z,1008.97
2019-01-20T03:20:54.313Z,1008.99
2019-01-20T03:21:54.254Z,1008.96
2019-01-20T03:22:54.180Z,1008.96
2019-01-20T03:23:54.125Z,1009.00
2019-01-20T03:24:54.099Z,1008.99
2019-01-20T03:25:54.105Z,1008.96
2019-01-20T03:26:53.984Z,1009.00
2019-01-20T03:27:53.939Z,1009.04
2019-01-20T03:28:53.922Z,1009.02
2019-01-20T03:29:53.875Z,1009.03
2019-01-20T03:30:53.812Z,1009.07
2019-01-20T03:31:53.777Z,1009.03
2019-01-20T03:32:53.714Z,1009.04
2019-01-20T03:33:53.662Z,1009.06
2019-01-20T03:34:53.624Z,1009.04
2019-01-20T03:35:53.566Z,1008.99
2019-01-20T03:36:53.521Z,1009.00
2019-01-20T03:37:53.459Z,1008.96
2019-01-20T03:38:53.404Z,1008.99
2019-01-20T03:39:53.353Z,1009.01
2019-01-20T03:42:32.608Z,1008.95
2019-01-20T03:43:32.522Z,1008.96
2019-01-20T03:44:32.469Z,1009.02
2019-01-20T03:45:32.399Z,1008.98
2019-01-20T03:46:32.442Z,1008.97
2019-01-20T03:47:32.334Z,1009.00
2019-01-20T03:48:32.323Z,1009.03
2019-01-20T03:49:32.249Z,1009.04
2019-01-20T03:50:32.188Z,1009.02
2019-01-20T03:51:32.120Z,1009.02
2019-01-20T03:52:32.124Z,1009.00
2019-01-20T03:53:32.036Z,1009.05
2019-01-20T03:54:32.037Z,1009.00
2019-01-20T03:55:31.935Z,1009.02
2019-01-20T03:56:31.901Z,1008.99
2019-01-20T03:57:31.860Z,1009.02
2019-01-20T03:58:31.787Z,1009.01
2019-01-20T03:59:31.757Z,1009.02
2019-01-20T04:00:31.697Z,1009.02
2019-01-20T04:01:31.632Z,1009.04
2019-01-20T04:02:31.566Z,1009.00
2019-01-20T04:03:31.527Z,1009.00
2019-01-20T04:04:31.493Z,1008.98
2019-01-20T04:05:31.448Z,1008.97
2019-01-20T04:06:31.394Z,1009.02
2019-01-20T04:07:31.318Z,1008.96
2019-01-20T04:08:31.294Z,1008.97
2019-01-20T04:09:31.279Z,1008.97
2019-01-20T04:10:31.215Z,1008.97
2019-01-20T04:11:31.143Z,1008.98
2019-01-20T04:12:31.087Z,1009.00
2019-01-20T04:13:31.019Z,1009.00
2019-01-20T04:14:30.997Z,1008.99
2019-01-20T04:15:30.990Z,1009.01
2019-01-20T04:16:30.913Z,1008.97
2019-01-20T04:17:30.813Z,1008.96
2019-01-20T04:18:30.804Z,1008.98
2019-01-20T04:19:30.730Z,1009.03
2019-01-20T04:20:30.717Z,1008.99
2019-01-20T04:21:30.620Z,1008.97
2019-01-20T04:22:31.097Z,1008.93
2019-01-20T04:23:30.528Z,1008.94
2019-01-20T04:24:30.496Z,1008.92
2019-01-20T04:25:30.469Z,1008.94
2019-01-20T04:26:30.385Z,1008.90
2019-01-20T04:27:30.325Z,1008.87
2019-01-20T04:28:31.101Z,1008.85
2019-01-20T04:29:30.247Z,1008.88
2019-01-20T04:30:30.210Z,1008.90
2019-01-20T04:31:30.143Z,1008.86
2019-01-20T04:32:30.094Z,1008.84
2019-01-20T04:33:30.029Z,1008.89
2019-01-20T04:34:30.004Z,1008.82
2019-01-20T04:35:29.943Z,1008.87
2019-01-20T04:36:29.887Z,1008.83
2019-01-20T04:37:29.833Z,1008.83
2019-01-20T04:38:29.800Z,1008.84
2019-01-20T04:39:29.761Z,1008.85
2019-01-20T04:40:29.709Z,1008.87
2019-01-20T04:41:29.668Z,1008.87
2019-01-20T04:42:29.603Z,1008.88
2019-01-20T04:43:30.100Z,1008.90
2019-01-20T04:44:29.604Z,1008.91
2019-01-20T04:45:29.494Z,1008.89
2019-01-20T04:46:29.390Z,1008.88
2019-01-20T04:47:29.360Z,1008.89
2019-01-20T04:48:29.299Z,1008.90
2019-01-20T04:49:29.261Z,1008.93
2019-01-20T04:50:29.196Z,1008.92
2019-01-20T04:51:29.198Z,1008.90
2019-01-20T04:52:29.101Z,1008.94
2019-01-20T04:53:29.062Z,1008.90
2019-01-20T04:54:29.046Z,1008.89
2019-01-20T04:55:28.948Z,1008.91
2019-01-20T04:56:28.917Z,1008.88
2019-01-20T04:57:28.840Z,1008.92
2019-01-20T04:58:28.820Z,1008.90
2019-01-20T04:59:28.806Z,1008.90
2019-01-20T05:00:28.716Z,1008.92
2019-01-20T05:01:28.632Z,1008.92
2019-01-20T05:02:28.651Z,1008.93
2019-01-20T05:03:28.553Z,1008.93
2019-01-20T05:04:28.541Z,1008.94
2019-01-20T05:05:28.488Z,1008.99
2019-01-20T05:06:28.410Z,1008.97
2019-01-20T05:07:28.380Z,1008.95
2019-01-20T05:08:28.321Z,1008.99
2019-01-20T05:09:28.313Z,1009.00
2019-01-20T05:10:28.186Z,1008.99
2019-01-20T05:11:28.174Z,1009.00
2019-01-20T05:12:28.123Z,1009.00
2019-01-20T05:13:28.045Z,1009.00
2019-01-20T05:14:28.042Z,1008.99
2019-01-20T05:15:27.987Z,1009.00
2019-01-20T05:16:27.980Z,1009.01
2019-01-20T05:17:27.897Z,1009.03
2019-01-20T05:18:27.824Z,1009.01
2019-01-20T05:19:27.774Z,1009.05
2019-01-20T05:20:27.717Z,1009.08
2019-01-20T05:21:27.695Z,1009.10
2019-01-20T05:22:27.622Z,1009.07
2019-01-20T05:23:27.580Z,1009.04
2019-01-20T05:24:27.511Z,1009.08
2019-01-20T05:25:27.492Z,1009.07
2019-01-20T05:26:27.433Z,1009.09
2019-01-20T05:27:27.358Z,1009.04
2019-01-20T05:28:27.422Z,1009.08
2019-01-20T05:29:27.276Z,1009.12
2019-01-20T05:30:27.267Z,1009.11
2019-01-20T05:31:27.213Z,1009.09
2019-01-20T05:32:27.154Z,1009.13
2019-01-20T05:33:27.055Z,1009.12
2019-01-20T05:34:27.009Z,1009.11
2019-01-20T05:35:26.990Z,1009.12
2019-01-20T05:36:26.982Z,1009.15
2019-01-20T05:37:26.875Z,1009.16
2019-01-20T05:38:26.812Z,1009.17
2019-01-20T05:39:26.778Z,1009.17
2019-01-20T05:40:26.748Z,1009.17
2019-01-20T05:41:26.697Z,1009.12
2019-01-20T05:42:26.602Z,1009.17
2019-01-20T05:43:26.640Z,1009.18
2019-01-20T05:44:26.575Z,1009.19
2019-01-20T05:45:26.484Z,1009.21
2019-01-20T05:46:26.458Z,1009.23
2019-01-20T05:47:26.376Z,1009.26
2019-01-20T05:48:26.381Z,1009.27
2019-01-20T05:49:26.310Z,1009.26
2019-01-20T05:50:26.238Z,1009.31
2019-01-20T05:51:26.210Z,1009.32
2019-01-20T05:52:26.155Z,1009.25
2019-01-20T05:53:26.118Z,1009.32
2019-01-20T05:54:26.049Z,1009.33
2019-01-20T05:55:25.991Z,1009.34
2019-01-20T05:56:25.982Z,1009.36
2019-01-20T05:57:25.913Z,1009.30
2019-01-20T05:58:25.872Z,1009.38
2019-01-20T05:59:25.791Z,1009.31
2019-01-20T06:00:25.762Z,1009.30
2019-01-20T06:01:27.278Z,1009.31
2019-01-20T06:02:25.663Z,1009.39
2019-01-20T06:03:25.654Z,1009.35
2019-01-20T06:04:25.553Z,1009.37
2019-01-20T06:05:25.511Z,1009.36
2019-01-20T06:06:25.440Z,1009.35
2019-01-20T06:07:25.424Z,1009.36
2019-01-20T06:08:25.363Z,1009.37
2019-01-20T06:09:25.312Z,1009.36
2019-01-20T06:10:25.262Z,1009.34
2019-01-20T06:11:25.207Z,1009.39
2019-01-20T06:12:25.184Z,1009.38
2019-01-20T06:13:25.124Z,1009.39
2019-01-20T06:14:25.039Z,1009.42
2019-01-20T06:15:25.004Z,1009.43
2019-01-20T06:16:24.952Z,1009.41
2019-01-20T06:17:24.900Z,1009.44
2019-01-20T06:18:24.898Z,1009.46
2019-01-20T06:19:24.820Z,1009.43
2019-01-20T06:20:24.750Z,1009.45
2019-01-20T06:21:24.711Z,1009.50
2019-01-20T06:22:24.704Z,1009.52
2019-01-20T06:23:24.641Z,1009.52
2019-01-20T06:24:24.588Z,1009.55
2019-01-20T06:25:24.532Z,1009.58
2019-01-20T06:26:24.481Z,1009.62
2019-01-20T06:27:24.384Z,1009.56
2019-01-20T06:28:24.408Z,1009.60
2019-01-20T06:29:24.342Z,1009.62
2019-01-20T06:30:24.296Z,1009.64
2019-01-20T06:31:24.235Z,1009.61
2019-01-20T06:32:24.161Z,1009.54
2019-01-20T06:33:24.152Z,1009.55
2019-01-20T06:34:24.087Z,1009.53
2019-01-20T06:35:24.020Z,1009.56
2019-01-20T06:36:23.978Z,1009.59
2019-01-20T06:37:23.935Z,1009.60
2019-01-20T06:38:23.882Z,1009.61
2019-01-20T06:39:23.826Z,1009.63
2019-01-20T06:40:23.809Z,1009.62
2019-01-20T06:41:23.747Z,1009.62
2019-01-20T06:42:23.698Z,1009.63
2019-01-20T06:43:23.613Z,1009.62
2019-01-20T06:44:23.602Z,1009.68
2019-01-20T06:45:23.519Z,1009.66
2019-01-20T06:46:23.490Z,1009.66
2019-01-20T06:47:23.435Z,1009.67
2019-01-20T06:48:23.380Z,1009.68
2019-01-20T06:49:23.359Z,1009.62
2019-01-20T06:50:23.268Z,1009.65
2019-01-20T06:51:23.247Z,1009.66
2019-01-20T06:52:23.203Z,1009.63
2019-01-20T06:53:23.136Z,1009.64
2019-01-20T06:54:23.182Z,1009.67
2019-01-20T06:55:23.046Z,1009.71
2019-01-20T06:56:23.031Z,1009.66
2019-01-20T06:57:22.966Z,1009.73
2019-01-20T06:58:22.870Z,1009.71
2019-01-20T06:59:22.855Z,1009.74
2019-01-20T07:00:22.829Z,1009.75
2019-01-20T07:01:22.761Z,1009.78
2019-01-20T07:02:22.722Z,1009.78
2019-01-20T07:03:22.657Z,1009.81
2019-01-20T07:04:22.589Z,1009.84
2019-01-20T07:05:22.612Z,1009.87
2019-01-20T07:06:22.528Z,1009.90
2019-01-20T07:07:22.461Z,1009.92
2019-01-20T07:08:22.390Z,1009.91
2019-01-20T07:09:22.370Z,1009.92
2019-01-20T07:10:22.310Z,1009.95
2019-01-20T07:11:22.326Z,1009.96
2019-01-20T07:12:22.209Z,1009.96
2019-01-20T07:13:22.169Z,1010.00
2019-01-20T07:14:22.091Z,1009.97
2019-01-20T07:15:22.049Z,1010.00
2019-01-20T07:16:22.024Z,1010.05
2019-01-20T07:17:22.024Z,1010.05
2019-01-20T07:18:21.877Z,1010.07
2019-01-20T07:19:21.838Z,1010.09
2019-01-20T07:20:21.789Z,1010.13
2019-01-20T07:21:21.778Z,1010.11
2019-01-20T07:22:21.709Z,1010.17
2019-01-20T07:23:21.636Z,1010.15
2019-01-20T07:24:21.583Z,1010.19
2019-01-20T07:25:21.559Z,1010.21
2019-01-20T07:26:21.492Z,1010.20
2019-01-20T07:27:21.502Z,1010.19
2019-01-20T07:28:21.397Z,1010.15
2019-01-20T07:29:21.340Z,1010.18
2019-01-20T07:30:21.273Z,1010.14
2019-01-20T07:31:21.272Z,1010.18
2019-01-20T07:32:21.222Z,1010.20
2019-01-20T07:33:21.178Z,1010.22
2019-01-20T07:34:21.094Z,1010.15
2019-01-20T07:35:21.062Z,1010.13
2019-01-20T07:36:21.006Z,1010.20
2019-01-20T07:37:20.996Z,1010.22
2019-01-20T07:38:20.898Z,1010.22
2019-01-20T07:39:20.846Z,1010.19
2019-01-20T07:40:20.826Z,1010.20
2019-01-20T07:41:20.730Z,1010.23
2019-01-20T07:42:20.713Z,1010.28
2019-01-20T07:43:20.629Z,1010.28
2019-01-20T07:44:20.621Z,1010.27
2019-01-20T07:45:20.571Z,1010.30
2019-01-20T07:46:20.506Z,1010.27
2019-01-20T07:47:20.518Z,1010.33
2019-01-20T07:48:20.417Z,1010.32
2019-01-20T07:49:20.393Z,1010.28
2019-01-20T07:50:20.290Z,1010.34
2019-01-20T07:51:20.247Z,1010.30
2019-01-20T07:52:20.207Z,1010.27
2019-01-20T07:53:20.166Z,1010.29
2019-01-20T07:54:20.105Z,1010.34
2019-01-20T07:55:20.048Z,1010.32
2019-01-20T07:56:19.998Z,1010.31
2019-01-20T07:57:19.946Z,1010.29
2019-01-20T07:58:19.937Z,1010.29
2019-01-20T07:59:19.861Z,1010.36
2019-01-20T08:00:19.810Z,1010.37
2019-01-20T08:01:19.767Z,1010.39
2019-01-20T08:02:19.728Z,1010.39
2019-01-20T08:03:19.675Z,1010.45
2019-01-20T08:04:19.592Z,1010.45
2019-01-20T08:05:19.558Z,1010.43
2019-01-20T08:06:19.503Z,1010.44
2019-01-20T08:07:19.460Z,1010.48
2019-01-20T08:08:19.473Z,1010.48
2019-01-20T08:09:19.406Z,1010.51
2019-01-20T08:10:19.325Z,1010.46
2019-01-20T08:11:19.295Z,1010.53
2019-01-20T08:12:23.491Z,1010.55
2019-01-20T08:13:24.229Z,1010.57
2019-01-20T08:14:19.157Z,1010.55
2019-01-20T08:15:19.154Z,1010.57
2019-01-20T08:16:19.054Z,1010.61
2019-01-20T08:17:18.998Z,1010.71
2019-01-20T08:18:18.932Z,1010.71
2019-01-20T08:19:18.870Z,1010.72
2019-01-20T08:20:18.838Z,1010.74
2019-01-20T08:21:18.756Z,1010.81
2019-01-20T08:22:18.701Z,1010.77
2019-01-20T08:23:18.721Z,1010.85
2019-01-20T08:24:18.622Z,1010.85
2019-01-20T08:25:18.800Z,1010.92
2019-01-20T08:26:18.556Z,1010.85
2019-01-20T08:27:18.490Z,1010.92
2019-01-20T08:28:18.451Z,1010.93
2019-01-20T08:29:18.470Z,1010.91
2019-01-20T08:30:18.346Z,1010.98
2019-01-20T08:31:18.291Z,1010.99
2019-01-20T08:32:18.464Z,1011.03
2019-01-20T08:33:18.222Z,1011.06
2019-01-20T08:34:18.184Z,1011.04
2019-01-20T08:35:18.084Z,1011.03
2019-01-20T08:36:18.032Z,1011.04
2019-01-20T08:37:18.005Z,1011.03
2019-01-20T08:38:17.947Z,1011.06
2019-01-20T08:39:17.933Z,1011.09
2019-01-20T08:40:17.864Z,1011.10
2019-01-20T08:41:17.815Z,1011.07
2019-01-20T08:42:17.772Z,1011.11
2019-01-20T08:43:17.741Z,1011.15
2019-01-20T08:44:17.720Z,1011.20
2019-01-20T08:45:17.660Z,1011.19
2019-01-20T08:46:17.633Z,1011.29
2019-01-20T08:47:17.615Z,1011.25
2019-01-20T08:48:17.530Z,1011.22
2019-01-20T08:49:17.483Z,1011.28
2019-01-20T08:50:17.420Z,1011.31
2019-01-20T08:51:17.390Z,1011.33
2019-01-20T08:52:17.417Z,1011.33
2019-01-20T08:53:17.286Z,1011.35
2019-01-20T08:54:17.248Z,1011.36
2019-01-20T08:55:17.193Z,1011.39
2019-01-20T08:56:17.172Z,1011.40
2019-01-20T08:57:17.119Z,1011.40
2019-01-20T08:58:17.054Z,1011.42
2019-01-20T08:59:17.029Z,1011.42
2019-01-20T09:00:16.990Z,1011.50
2019-01-20T09:01:16.952Z,1011.48
2019-01-20T09:02:16.891Z,1011.49
2019-01-20T09:03:16.892Z,1011.48
2019-01-20T09:04:16.820Z,1011.51
2019-01-20T09:05:16.781Z,1011.53
2019-01-20T09:06:16.719Z,1011.52
2019-01-20T09:07:16.680Z,1011.54
2019-01-20T09:08:16.651Z,1011.55
2019-01-20T09:09:16.622Z,1011.58
2019-01-20T09:10:16.557Z,1011.56
2019-01-20T09:11:16.515Z,1011.61
2019-01-20T09:12:16.460Z,1011.57
2019-01-20T09:13:16.452Z,1011.66
2019-01-20T09:14:16.388Z,1011.69
2019-01-20T09:15:16.350Z,1011.73
2019-01-20T09:16:16.323Z,1011.72
2019-01-20T09:17:16.264Z,1011.76
2019-01-20T09:18:16.240Z,1011.76
2019-01-20T09:19:16.179Z,1011.78
2019-01-20T09:20:16.151Z,1011.79
2019-01-20T09:21:16.102Z,1011.81
2019-01-20T09:22:16.069Z,1011.81
2019-01-20T09:23:16.037Z,1011.82
2019-01-20T09:24:15.994Z,1011.86
2019-01-20T09:25:15.938Z,1011.88
2019-01-20T09:26:15.896Z,1011.86
2019-01-20T09:27:15.869Z,1011.90
2019-01-20T09:28:15.818Z,1011.95
2019-01-20T09:29:15.798Z,1011.99
2019-01-20T09:30:15.729Z,1012.00
2019-01-20T09:31:15.684Z,1012.03
2019-01-20T09:32:15.647Z,1012.03
2019-01-20T09:33:15.616Z,1012.01
2019-01-20T09:34:15.600Z,1012.00
2019-01-20T09:35:15.567Z,1012.02
2019-01-20T09:36:15.487Z,1012.06
2019-01-20T09:37:15.449Z,1012.05
2019-01-20T09:38:15.443Z,1012.07
2019-01-20T09:39:15.369Z,1012.10
2019-01-20T09:40:15.345Z,1012.13
2019-01-20T09:41:15.307Z,1012.14
2019-01-20T09:42:15.244Z,1012.19
2019-01-20T09:43:15.239Z,1012.21
2019-01-20T09:44:15.165Z,1012.22
2019-01-20T09:45:15.155Z,1012.22
2019-01-20T09:46:16.327Z,1012.21
2019-01-20T09:47:15.083Z,1012.17
2019-01-20T09:48:15.042Z,1012.17
2019-01-20T09:49:14.993Z,1012.17
2019-01-20T09:50:14.938Z,1012.17
2019-01-20T09:51:14.887Z,1012.14
2019-01-20T09:52:14.875Z,1012.14
2019-01-20T09:53:14.846Z,1012.16
2019-01-20T09:54:14.807Z,1012.18
2019-01-20T09:55:14.741Z,1012.19
2019-01-20T09:56:14.709Z,1012.18
2019-01-20T09:57:14.656Z,1012.17
2019-01-20T09:58:14.636Z,1012.12
2019-01-20T09:59:14.613Z,1012.17
2019-01-20T10:00:14.548Z,1012.17
2019-01-20T10:01:14.509Z,1012.18
2019-01-20T10:02:14.468Z,1012.16
2019-01-20T10:03:16.242Z,1012.12
2019-01-20T10:04:14.458Z,1012.19
2019-01-20T10:05:14.364Z,1012.15
2019-01-20T10:06:14.405Z,1012.12
2019-01-20T10:07:14.293Z,1012.13
2019-01-20T10:08:14.299Z,1012.14
2019-01-20T10:09:14.187Z,1012.17
2019-01-20T10:10:14.255Z,1012.16
2019-01-20T10:11:14.205Z,1012.17
2019-01-20T10:12:14.084Z,1012.16
2019-01-20T10:13:14.100Z,1012.18
2019-01-20T10:14:14.097Z,1012.22
2019-01-20T10:15:13.980Z,1012.18
2019-01-20T10:16:13.938Z,1012.19
2019-01-20T10:17:13.893Z,1012.23
2019-01-20T10:18:13.858Z,1012.28
2019-01-20T10:19:13.797Z,1012.25
2019-01-20T10:20:13.764Z,1012.24
2019-01-20T10:21:13.749Z,1012.25
2019-01-20T10:22:13.703Z,1012.25
2019-01-20T10:23:13.664Z,1012.27
2019-01-20T10:24:13.656Z,1012.25
2019-01-20T10:25:15.198Z,1012.25
2019-01-20T10:26:13.565Z,1012.28
2019-01-20T10:27:13.485Z,1012.22
2019-01-20T10:28:13.450Z,1012.23
2019-01-20T10:29:13.404Z,1012.24
2019-01-20T10:30:13.354Z,1012.26
2019-01-20T10:31:13.382Z,1012.27
2019-01-20T10:32:13.286Z,1012.21
2019-01-20T10:33:13.240Z,1012.28
2019-01-20T10:34:13.193Z,1012.27
2019-01-20T10:35:13.156Z,1012.30
2019-01-20T10:36:13.155Z,1012.28
2019-01-20T10:37:13.087Z,1012.32
2019-01-20T10:38:13.046Z,1012.32
2019-01-20T10:39:13.012Z,1012.28
2019-01-20T10:40:12.963Z,1012.33
2019-01-20T10:41:12.957Z,1012.29
2019-01-20T10:42:12.882Z,1012.34
2019-01-20T10:43:12.847Z,1012.29
2019-01-20T10:44:12.806Z,1012.32
2019-01-20T10:45:12.768Z,1012.32
2019-01-20T10:46:12.814Z,1012.27
2019-01-20T10:47:12.727Z,1012.32
2019-01-20T10:48:12.647Z,1012.33
2019-01-20T10:49:12.642Z,1012.33
2019-01-20T10:50:12.573Z,1012.33
2019-01-20T10:51:12.535Z,1012.32
2019-01-20T10:52:12.529Z,1012.33
2019-01-20T10:53:12.450Z,1012.33
2019-01-20T10:54:12.452Z,1012.35
2019-01-20T10:55:12.375Z,1012.36
2019-01-20T10:56:12.340Z,1012.39
2019-01-20T10:57:12.315Z,1012.36
2019-01-20T10:58:12.278Z,1012.35
2019-01-20T10:59:12.217Z,1012.36
2019-01-20T11:00:12.175Z,1012.35
2019-01-20T11:01:12.127Z,1012.32
2019-01-20T11:02:12.090Z,1012.36
2019-01-20T11:03:12.095Z,1012.34
2019-01-20T11:04:12.032Z,1012.34
2019-01-20T11:05:12.098Z,1012.36
2019-01-20T11:06:12.159Z,1012.34
2019-01-20T11:07:12.090Z,1012.36
2019-01-20T11:08:11.966Z,1012.32
2019-01-20T11:09:12.000Z,1012.33
2019-01-20T11:10:11.784Z,1012.35
2019-01-20T11:11:11.783Z,1012.36
2019-01-20T11:12:11.703Z,1012.34
2019-01-20T11:13:11.665Z,1012.33
2019-01-20T11:14:11.608Z,1012.36
2019-01-20T11:15:11.581Z,1012.34
2019-01-20T11:16:11.573Z,1012.35
2019-01-20T11:17:11.517Z,1012.34
2019-01-20T11:18:11.458Z,1012.37
2019-01-20T11:19:11.427Z,1012.35
2019-01-20T11:20:11.372Z,1012.39
2019-01-20T11:21:11.348Z,1012.40
2019-01-20T11:22:11.326Z,1012.42
2019-01-20T11:23:11.271Z,1012.46
2019-01-20T11:24:11.234Z,1012.45
2019-01-20T11:25:11.186Z,1012.45
2019-01-20T11:26:11.171Z,1012.48
2019-01-20T11:27:11.095Z,1012.48
2019-01-20T11:28:11.054Z,1012.47
2019-01-20T11:29:11.042Z,1012.47
2019-01-20T11:30:11.015Z,1012.46
2019-01-20T11:31:10.960Z,1012.48
2019-01-20T11:32:10.940Z,1012.50
2019-01-20T11:33:10.861Z,1012.49
2019-01-20T11:34:10.824Z,1012.46
2019-01-20T11:35:10.800Z,1012.45
2019-01-20T11:36:10.752Z,1012.51
2019-01-20T11:37:10.703Z,1012.49
2019-01-20T11:38:10.690Z,1012.48
2019-01-20T11:39:10.625Z,1012.44
2019-01-20T11:40:10.593Z,1012.43
2019-01-20T11:41:10.561Z,1012.46
2019-01-20T11:42:10.562Z,1012.45
2019-01-20T11:43:10.474Z,1012.45
2019-01-20T11:44:16.877Z,1012.42
2019-01-20T11:45:10.403Z,1012.44
2019-01-20T11:46:10.371Z,1012.42
2019-01-20T11:47:10.314Z,1012.41
2019-01-20T11:48:10.267Z,1012.38
2019-01-20T11:49:10.242Z,1012.38
2019-01-20T11:50:10.189Z,1012.36
2019-01-20T11:51:10.178Z,1012.36
2019-01-20T11:52:10.138Z,1012.35
2019-01-20T11:53:10.088Z,1012.33
2019-01-20T11:54:10.042Z,1012.37
2019-01-20T11:55:10.022Z,1012.35
2019-01-20T11:56:09.975Z,1012.36
2019-01-20T11:57:10.161Z,1012.38
2019-01-20T11:58:09.882Z,1012.35
2019-01-20T11:59:09.862Z,1012.34
2019-01-20T12:00:09.806Z,1012.34
2019-01-20T12:01:09.813Z,1012.34
2019-01-20T12:02:09.737Z,1012.28
2019-01-20T12:03:09.686Z,1012.24
2019-01-20T12:04:09.682Z,1012.23
2019-01-20T12:05:09.615Z,1012.26
2019-01-20T12:06:09.575Z,1012.22
2019-01-20T12:07:09.577Z,1012.16